Terminal Aerodrome Forecast
Issued by NWS

Home | Current Version | Previous Version | Text Only | Print | Product List | Glossary On
Versions: 1 2 3 4 5 6 7 8 9 10 11 12
000
FTUS45 KGGW 301724
TAFGDV
TAF
KGDV 301724Z 3018/3118 17005KT P6SM OVC080
     FM302100 28007KT P6SM VCSH OVC060
     FM310300 36006KT P6SM -SHRA OVC050
     FM310600 02005KT P6SM VCSH OVC030
     FM311200 07005KT P6SM VCSH OVC007=

USA.gov is the U.S. government's official web portal to all federal, state and local government web resources and services.